Time;durP1;ratioP1;P1;durP2;ratioP2;P2;SDS_P1;SDS_P2;PMS_P1;PMS_P2;Temp;Humidity;BMP_temperature;BMP_pressure;BME280_temperature;BME280_humidity;BME280_pressure;Samples;Min_cycle;Max_cycle;Signal;HPM_P1;HPM_P2
2023/09/10 00:02:07;;;;;;;918.55;824.95;;;17.00;79.80;;;;;;5050540;28;20484;-69
2023/09/10 00:04:33;;;;;;;885.67;798.50;;;17.00;79.90;;;;;;5018318;28;20045;-73
2023/09/10 00:06:59;;;;;;;910.92;816.55;;;17.00;80.00;;;;;;5039901;28;20086;-71
2023/09/10 00:09:25;;;;;;;899.47;808.22;;;17.00;80.10;;;;;;5050742;28;20053;-69
2023/09/10 00:11:51;;;;;;;906.00;812.88;;;17.00;80.20;;;;;;5050498;28;20174;-70
2023/09/10 00:14:17;;;;;;;898.63;808.95;;;16.90;80.40;;;;;;5049887;28;20095;-69
2023/09/10 00:16:43;;;;;;;804.88;732.88;;;16.90;80.20;;;;;;5022740;28;20531;-72
2023/09/10 00:19:11;;;;;;;865.67;781.25;;;16.80;80.20;;;;;;5031885;28;20159;-70
2023/09/10 00:21:37;;;;;;;857.13;774.15;;;16.80;80.10;;;;;;5033686;28;20097;-73
2023/09/10 00:24:03;;;;;;;835.28;754.58;;;16.60;80.00;;;;;;5051563;28;20049;-71
2023/09/10 00:26:29;;;;;;;827.38;743.10;;;16.50;80.00;;;;;;5039263;28;20036;-72
2023/09/10 00:28:54;;;;;;;849.08;766.70;;;16.50;79.80;;;;;;5049620;28;20685;-72
2023/09/10 00:31:20;;;;;;;828.03;747.33;;;16.40;79.70;;;;;;5027525;28;20080;-72
2023/09/10 00:33:46;;;;;;;853.72;770.67;;;16.20;79.80;;;;;;5050433;28;20045;-73
2023/09/10 00:36:12;;;;;;;789.42;712.00;;;16.20;79.70;;;;;;5042183;28;20056;-72
2023/09/10 00:38:37;;;;;;;849.08;763.45;;;16.10;79.70;;;;;;5050034;28;20080;-73
2023/09/10 00:41:07;;;;;;;839.88;756.67;;;16.10;79.80;;;;;;5049652;28;20044;-72
2023/09/10 00:43:33;;;;;;;838.28;754.78;;;16.00;79.70;;;;;;5050465;28;20049;-72
2023/09/10 00:45:59;;;;;;;814.97;738.50;;;16.00;79.70;;;;;;5051541;28;20040;-73
2023/09/10 00:48:26;;;;;;;877.50;789.08;;;16.00;79.80;;;;;;5038878;28;20049;-73
2023/09/10 00:50:52;;;;;;;830.30;749.70;;;16.00;80.00;;;;;;5051376;28;20474;-69
2023/09/10 00:53:19;;;;;;;918.17;819.40;;;16.00;80.10;;;;;;5049934;28;20123;-72
2023/09/10 00:55:47;;;;;;;831.95;748.03;;;16.00;80.20;;;;;;5031978;28;20037;-73
2023/09/10 00:58:13;;;;;;;827.17;744.45;;;16.00;80.30;;;;;;5037078;28;20729;-71
2023/09/10 01:00:42;;;;;;;871.05;779.80;;;16.10;80.40;;;;;;5047097;28;20048;-67
2023/09/10 01:03:09;;;;;;;879.13;790.17;;;16.10;80.40;;;;;;5049661;28;20383;-70
2023/09/10 01:05:36;;;;;;;875.97;783.28;;;16.00;80.40;;;;;;5032496;28;20041;-73
2023/09/10 01:08:05;;;;;;;851.80;765.55;;;16.00;80.50;;;;;;5017172;28;20049;-72
2023/09/10 01:10:58;;;;;;;891.47;796.45;;;16.00;80.60;;;;;;5044901;28;20049;-72
2023/09/10 01:13:57;;;;;;;901.88;808.53;;;16.00;80.70;;;;;;5049241;28;20084;-67
2023/09/10 01:16:30;;;;;;;835.97;748.97;;;16.00;80.60;;;;;;5029117;28;20620;-69
2023/09/10 01:19:04;;;;;;;873.05;778.10;;;16.00;80.50;;;;;;5049695;28;20527;-73
2023/09/10 01:21:55;;;;;;;873.60;779.60;;;16.00;80.60;;;;;;5050610;28;20373;-73
2023/09/10 01:24:36;;;;;;;829.65;744.67;;;16.00;80.70;;;;;;5036462;28;20079;-71
2023/09/10 01:27:02;;;;;;;859.08;764.15;;;16.00;80.60;;;;;;5038259;28;20048;-73
2023/09/10 01:29:28;;;;;;;895.25;797.50;;;16.00;80.60;;;;;;5049478;28;20040;-73
2023/09/10 01:31:58;;;;;;;857.38;764.90;;;15.90;80.70;;;;;;5033008;28;20037;-71
2023/09/10 01:34:29;;;;;;;839.83;753.22;;;15.90;80.60;;;;;;5049260;28;20159;-72
2023/09/10 01:37:07;;;;;;;825.83;738.83;;;15.80;80.60;;;;;;5038369;28;20040;-71
2023/09/10 01:39:40;;;;;;;879.97;786.78;;;15.80;80.60;;;;;;5050521;28;20400;-72
2023/09/10 01:42:07;;;;;;;855.22;765.30;;;15.80;80.70;;;;;;5031886;28;20051;-72
2023/09/10 01:44:34;;;;;;;845.08;754.70;;;15.80;80.80;;;;;;5048966;28;20045;-73
2023/09/10 01:47:00;;;;;;;889.83;796.05;;;15.80;80.90;;;;;;5038533;28;20049;-73
2023/09/10 01:49:26;;;;;;;882.53;790.17;;;15.80;80.80;;;;;;5049848;28;20515;-73
2023/09/10 01:51:52;;;;;;;859.30;766.60;;;15.80;80.70;;;;;;5050057;28;20045;-73
2023/09/10 01:54:18;;;;;;;836.47;750.25;;;15.80;80.60;;;;;;5048145;28;20142;-73
2023/09/10 01:56:44;;;;;;;904.92;758.92;;;15.80;80.70;;;;;;5038353;28;20077;-66
2023/09/10 01:59:09;;;;;;;883.08;777.83;;;15.80;80.80;;;;;;5043441;28;20077;-73
2023/09/10 02:01:36;;;;;;;852.53;759.15;;;15.70;80.70;;;;;;5049444;28;20119;-70
2023/09/10 02:04:01;;;;;;;883.75;769.15;;;15.60;80.90;;;;;;5049165;28;20055;-70
2023/09/10 02:06:27;;;;;;;935.08;793.05;;;15.60;81.10;;;;;;5021023;28;20033;-73
2023/09/10 02:08:53;;;;;;;884.30;786.15;;;15.60;81.00;;;;;;5048917;28;20063;-69
2023/09/10 02:11:19;;;;;;;913.72;778.10;;;15.60;80.90;;;;;;5049685;28;20048;-70
2023/09/10 02:13:45;;;;;;;895.45;793.00;;;15.60;80.90;;;;;;5048358;28;20048;-73
2023/09/10 02:16:12;;;;;;;850.40;757.20;;;15.60;80.90;;;;;;5040571;28;20718;-73
2023/09/10 02:18:38;;;;;;;862.15;760.65;;;15.50;80.80;;;;;;5047772;28;20258;-73
2023/09/10 02:21:13;;;;;;;881.65;787.65;;;15.50;80.80;;;;;;5050624;28;20427;-73
2023/09/10 02:23:42;;;;;;;882.03;783.83;;;15.50;80.90;;;;;;5048772;28;20056;-72
2023/09/10 02:26:08;;;;;;;917.63;790.00;;;15.40;80.90;;;;;;5042262;28;20055;-73
2023/09/10 02:28:34;;;;;;;938.38;783.40;;;15.40;80.90;;;;;;5028792;28;20041;-71
2023/09/10 02:31:07;;;;;;;824.92;724.88;;;15.40;81.00;;;;;;5032192;28;20043;-72
2023/09/10 02:33:33;;;;;;;847.22;751.25;;;15.40;81.00;;;;;;5049716;28;20132;-70
2023/09/10 02:35:59;;;;;;;875.58;749.58;;;15.40;81.20;;;;;;5049654;28;20099;-73
2023/09/10 02:38:26;;;;;;;903.90;768.65;;;15.40;81.40;;;;;;5038124;28;20547;-73
2023/09/10 02:40:53;;;;;;;905.50;783.13;;;15.40;81.50;;;;;;5049897;28;20128;-73
2023/09/10 02:43:19;;;;;;;819.10;728.45;;;15.40;81.40;;;;;;5048655;28;20049;-67
2023/09/10 02:45:44;;;;;;;891.90;797.88;;;15.40;81.40;;;;;;5049332;28;20114;-74
2023/09/10 02:48:10;;;;;;;881.25;747.08;;;15.40;81.40;;;;;;5037251;28;20127;-71
2023/09/10 02:50:36;;;;;;;849.40;745.92;;;15.40;81.50;;;;;;5049372;28;20067;-74
2023/09/10 02:53:02;;;;;;;881.85;742.38;;;15.40;81.60;;;;;;5049265;28;20040;-71
2023/09/10 02:55:28;;;;;;;1021.35;764.90;;;15.40;81.80;;;;;;5048976;28;20559;-72
2023/09/10 02:57:53;;;;;;;873.67;744.35;;;15.40;81.80;;;;;;5036772;28;20534;-73
2023/09/10 03:00:25;;;;;;;894.05;749.42;;;15.40;81.90;;;;;;5028097;28;20110;-68
2023/09/10 03:02:57;;;;;;;989.08;756.47;;;15.40;81.80;;;;;;5048244;28;20041;-72
2023/09/10 03:05:23;;;;;;;845.40;732.53;;;15.40;81.90;;;;;;5047992;28;20041;-71
2023/09/10 03:07:54;;;;;;;837.65;724.35;;;15.40;81.90;;;;;;5036776;28;20045;-73
2023/09/10 03:10:19;;;;;;;901.97;757.78;;;15.50;81.90;;;;;;5048135;28;20048;-71
2023/09/10 03:12:45;;;;;;;911.47;778.92;;;15.50;81.80;;;;;;5047098;28;20037;-74
2023/09/10 03:15:11;;;;;;;946.50;801.67;;;15.50;81.80;;;;;;5047025;28;20040;-71
2023/09/10 03:17:36;;;;;;;891.25;760.03;;;15.50;81.70;;;;;;5002388;28;20124;-70
2023/09/10 03:20:05;;;;;;;861.53;724.05;;;15.40;81.70;;;;;;5047075;28;20041;-72
2023/09/10 03:22:31;;;;;;;915.20;758.63;;;15.50;81.80;;;;;;5030706;28;20438;-72
2023/09/10 03:24:57;;;;;;;853.53;735.05;;;15.50;81.90;;;;;;5029947;28;20053;-69
2023/09/10 03:27:23;;;;;;;888.03;751.58;;;15.50;81.90;;;;;;5037667;28;20063;-73
2023/09/10 03:29:48;;;;;;;943.45;765.65;;;15.50;82.00;;;;;;5052360;28;20468;-71
2023/09/10 03:32:14;;;;;;;868.38;763.17;;;15.50;81.90;;;;;;5034443;28;20045;-72
2023/09/10 03:34:42;;;;;;;983.55;772.03;;;15.50;81.90;;;;;;5051372;28;20037;-73
2023/09/10 03:37:08;;;;;;;926.95;763.45;;;15.50;81.80;;;;;;5040745;28;20037;-71
2023/09/10 03:39:34;;;;;;;880.88;762.25;;;15.40;81.70;;;;;;5031122;28;20481;-70
2023/09/10 03:41:59;;;;;;;902.90;762.63;;;15.40;81.70;;;;;;5053122;28;20048;-73
2023/09/10 03:44:25;;;;;;;907.65;788.92;;;15.40;81.60;;;;;;5051362;28;21443;-73
2023/09/10 03:46:52;;;;;;;995.00;761.20;;;15.40;81.60;;;;;;5040781;28;20337;-73
2023/09/10 03:49:19;;;;;;;962.60;758.97;;;15.30;81.50;;;;;;5051925;28;20044;-63
2023/09/10 03:51:46;;;;;;;892.78;744.63;;;15.30;81.60;;;;;;5051642;28;20040;-74
2023/09/10 03:54:12;;;;;;;886.40;742.72;;;15.30;81.60;;;;;;5051906;28;20407;-73
2023/09/10 03:56:39;;;;;;;924.92;762.05;;;15.30;81.70;;;;;;5040980;28;20053;-73
2023/09/10 03:59:07;;;;;;;963.15;761.70;;;15.30;81.80;;;;;;5058033;28;20044;-73
2023/09/10 04:01:33;;;;;;;842.13;755.10;;;15.30;81.70;;;;;;5052982;28;20048;-72
2023/09/10 04:03:59;;;;;;;916.53;746.92;;;15.30;81.70;;;;;;5053794;28;20036;-74
2023/09/10 04:06:24;;;;;;;997.97;769.92;;;15.30;81.70;;;;;;5040618;28;20091;-73
2023/09/10 04:08:50;;;;;;;1004.42;760.55;;;15.30;81.80;;;;;;5034453;28;20041;-73
2023/09/10 04:11:16;;;;;;;974.70;759.17;;;15.30;81.80;;;;;;5050038;28;20048;-67
2023/09/10 04:13:42;;;;;;;896.90;743.85;;;15.30;81.80;;;;;;5048715;28;20060;-72
2023/09/10 04:16:07;;;;;;;981.22;769.75;;;15.30;81.80;;;;;;5006384;28;20112;-72
2023/09/10 04:18:34;;;;;;;934.30;770.22;;;15.30;81.80;;;;;;5027835;28;20045;-71
2023/09/10 04:21:06;;;;;;;806.70;718.33;;;15.30;81.60;;;;;;5049291;28;20052;-71
2023/09/10 04:23:32;;;;;;;854.47;764.22;;;15.30;81.70;;;;;;5042790;28;20171;-69
2023/09/10 04:25:58;;;;;;;883.10;762.58;;;15.20;81.70;;;;;;5048991;28;20124;-70
2023/09/10 04:28:24;;;;;;;875.58;741.70;;;15.20;81.70;;;;;;5037235;28;20041;-70
2023/09/10 04:30:50;;;;;;;848.60;736.30;;;15.20;81.70;;;;;;5048712;28;20037;-72
2023/09/10 04:33:17;;;;;;;913.78;744.00;;;15.20;81.70;;;;;;5048405;28;20045;-71
2023/09/10 04:35:51;;;;;;;950.38;756.95;;;15.20;81.80;;;;;;5030903;28;20052;-71
2023/09/10 04:38:16;;;;;;;883.70;746.72;;;15.20;81.80;;;;;;5017909;28;20419;-73
2023/09/10 04:40:42;;;;;;;984.63;748.08;;;15.20;81.80;;;;;;5047456;28;20041;-68
2023/09/10 04:43:08;;;;;;;979.05;754.65;;;15.20;81.80;;;;;;5048146;28;20079;-73
2023/09/10 04:45:34;;;;;;;981.78;752.70;;;15.20;81.90;;;;;;5030848;28;20418;-71
2023/09/10 04:48:02;;;;;;;840.97;742.67;;;15.20;81.80;;;;;;5036960;28;20052;-73
2023/09/10 04:50:28;;;;;;;920.10;799.90;;;15.20;81.70;;;;;;5031121;28;20064;-74
2023/09/10 04:52:54;;;;;;;847.05;749.67;;;15.20;81.70;;;;;;5046634;28;20395;-70
2023/09/10 04:55:19;;;;;;;863.80;736.08;;;15.20;81.60;;;;;;5048271;28;20094;-71
2023/09/10 04:57:46;;;;;;;978.35;848.10;;;15.20;81.60;;;;;;5036106;28;20209;-70
2023/09/10 05:00:12;;;;;;;853.05;742.05;;;15.10;81.60;;;;;;5030856;28;20550;-73
2023/09/10 05:02:38;;;;;;;858.38;719.30;;;15.10;81.60;;;;;;5047314;28;20128;-71
2023/09/10 05:05:04;;;;;;;880.03;765.15;;;15.10;81.60;;;;;;5048963;28;20159;-72
2023/09/10 05:07:30;;;;;;;957.33;752.05;;;15.00;81.50;;;;;;5018103;28;20780;-70
2023/09/10 05:09:55;;;;;;;870.58;777.80;;;15.00;81.50;;;;;;5038400;28;20042;-73
2023/09/10 05:12:21;;;;;;;883.85;769.28;;;15.00;81.50;;;;;;5029823;28;20111;-67
2023/09/10 05:14:47;;;;;;;826.35;730.92;;;15.00;81.50;;;;;;5031505;28;20051;-71
2023/09/10 05:17:13;;;;;;;886.55;752.42;;;15.00;81.40;;;;;;5031432;28;20072;-69
2023/09/10 05:19:39;;;;;;;912.40;762.90;;;15.00;81.50;;;;;;5046930;28;20053;-71
2023/09/10 05:22:04;;;;;;;974.42;778.22;;;14.90;81.50;;;;;;5045669;28;20064;-72
2023/09/10 05:24:30;;;;;;;886.40;789.17;;;14.90;81.50;;;;;;5047788;28;20072;-70
2023/09/10 05:26:56;;;;;;;904.90;755.70;;;14.90;81.60;;;;;;5036370;28;20495;-73
2023/09/10 05:29:22;;;;;;;957.53;788.42;;;14.90;81.70;;;;;;5054271;28;20048;-73
2023/09/10 05:31:48;;;;;;;1040.53;790.60;;;14.90;81.70;;;;;;5047669;28;20120;-72
2023/09/10 05:34:14;;;;;;;1044.00;781.00;;;14.90;81.80;;;;;;5047349;28;20048;-72
2023/09/10 05:36:39;;;;;;;998.75;777.90;;;14.90;81.80;;;;;;5036270;28;20388;-73
2023/09/10 05:39:05;;;;;;;1052.05;767.33;;;14.90;81.90;;;;;;5042603;28;20045;-72
2023/09/10 05:41:31;;;;;;;995.25;797.10;;;15.00;82.00;;;;;;5034670;28;20130;-72
2023/09/10 05:43:57;;;;;;;1024.47;788.72;;;15.00;82.00;;;;;;5033214;28;20663;-73
2023/09/10 05:46:22;;;;;;;1035.30;795.10;;;15.00;82.10;;;;;;5029178;28;20506;-70
2023/09/10 05:48:48;;;;;;;1079.25;807.03;;;15.00;82.20;;;;;;5031766;28;20442;-70
2023/09/10 05:51:14;;;;;;;1145.10;855.25;;;15.00;82.20;;;;;;5033845;28;20044;-73
2023/09/10 05:53:42;;;;;;;1290.13;892.83;;;15.10;82.40;;;;;;5036917;28;20045;-73
2023/09/10 05:56:08;;;;;;;1105.25;858.33;;;15.20;82.60;;;;;;5039243;28;20048;-71
2023/09/10 05:58:34;;;;;;;904.22;805.25;;;15.30;82.70;;;;;;5045560;28;20032;-73
2023/09/10 06:01:00;;;;;;;1171.13;852.80;;;15.40;82.90;;;;;;5035724;28;20037;-66
2023/09/10 06:03:26;;;;;;;1028.72;824.60;;;15.50;82.90;;;;;;5038796;28;20053;-73
2023/09/10 06:05:51;;;;;;;954.58;819.10;;;15.50;83.00;;;;;;5043701;28;20072;-73
2023/09/10 06:08:17;;;;;;;891.05;795.22;;;15.60;83.00;;;;;;5031958;28;20438;-71
2023/09/10 06:10:43;;;;;;;921.13;817.83;;;15.70;83.20;;;;;;5030400;28;20033;-74
2023/09/10 06:13:08;;;;;;;1109.22;847.08;;;15.80;83.20;;;;;;5030512;28;20072;-72
2023/09/10 06:15:34;;;;;;;987.90;830.88;;;15.90;83.20;;;;;;5031319;28;20040;-74
2023/09/10 06:18:00;;;;;;;880.83;789.58;;;16.00;83.30;;;;;;5036371;28;20045;-73
2023/09/10 06:20:26;;;;;;;918.78;820.08;;;16.00;83.30;;;;;;5048883;28;20094;-65
2023/09/10 06:22:52;;;;;;;883.90;798.20;;;16.10;83.30;;;;;;5048976;28;20045;-72
2023/09/10 06:25:19;;;;;;;920.13;822.83;;;16.10;83.30;;;;;;5046186;28;20045;-74
2023/09/10 06:27:44;;;;;;;1033.43;845.97;;;16.20;83.30;;;;;;5029741;28;20511;-72
2023/09/10 06:30:10;;;;;;;995.72;835.70;;;16.30;83.50;;;;;;5048862;28;20053;-73
2023/09/10 06:32:36;;;;;;;950.03;844.08;;;16.40;83.50;;;;;;5048199;28;20052;-74
2023/09/10 06:35:02;;;;;;;1027.20;845.88;;;16.40;83.60;;;;;;5039537;28;20037;-73
2023/09/10 06:37:28;;;;;;;958.35;810.53;;;16.50;83.70;;;;;;5037524;28;20514;-73
2023/09/10 06:39:54;;;;;;;903.58;806.17;;;16.60;83.50;;;;;;5047384;28;20044;-72
2023/09/10 06:42:20;;;;;;;921.72;830.15;;;16.60;83.50;;;;;;5030558;28;20185;-74
2023/09/10 06:44:45;;;;;;;966.30;839.47;;;16.70;83.50;;;;;;5048300;28;20098;-72
2023/09/10 06:47:11;;;;;;;924.53;822.60;;;16.80;83.60;;;;;;5037252;28;20047;-74
2023/09/10 06:49:37;;;;;;;934.03;812.67;;;16.90;83.70;;;;;;5047157;28;20431;-74
2023/09/10 06:52:04;;;;;;;945.53;842.20;;;17.00;83.80;;;;;;5047992;28;20049;-72
2023/09/10 06:54:31;;;;;;;941.60;833.78;;;17.00;84.00;;;;;;5047949;28;20033;-73
2023/09/10 06:56:58;;;;;;;919.50;804.67;;;17.20;83.90;;;;;;5035043;28;20033;-70
2023/09/10 06:59:24;;;;;;;995.70;856.10;;;17.20;83.70;;;;;;5028775;28;20502;-74
2023/09/10 07:01:50;;;;;;;980.88;847.95;;;17.40;84.00;;;;;;5047842;28;20033;-74
2023/09/10 07:04:21;;;;;;;928.65;826.95;;;17.50;83.90;;;;;;5032689;28;20044;-71
2023/09/10 07:06:48;;;;;;;;;;;17.50;83.70;;;;;;5018096;28;20486;-73
2023/09/10 07:09:16;;;;;;;1042.20;840.75;;;17.60;84.00;;;;;;5028852;28;20360;-74
2023/09/10 07:11:42;;;;;;;936.22;838.63;;;17.70;83.70;;;;;;5053548;28;20118;-73
2023/09/10 07:14:08;;;;;;;975.95;838.35;;;17.80;83.80;;;;;;5033710;28;20045;-69
2023/09/10 07:16:34;;;;;;;942.17;834.53;;;17.90;83.80;;;;;;5033265;28;20178;-73
2023/09/10 07:19:00;;;;;;;961.28;858.80;;;18.00;83.80;;;;;;5056982;28;20044;-70
2023/09/10 07:21:27;;;;;;;953.83;851.70;;;18.10;83.70;;;;;;5036134;28;20091;-73
2023/09/10 07:23:52;;;;;;;940.53;839.05;;;18.20;83.60;;;;;;5040048;28;20128;-73
2023/09/10 07:26:18;;;;;;;946.28;841.88;;;18.20;83.60;;;;;;5046663;28;20124;-73
2023/09/10 07:28:44;;;;;;;979.33;874.15;;;18.30;83.60;;;;;;5049087;28;20387;-73
2023/09/10 07:31:09;;;;;;;972.42;865.00;;;18.40;83.70;;;;;;5028866;28;20040;-73
2023/09/10 07:33:35;;;;;;;998.28;880.88;;;18.50;83.60;;;;;;5047592;28;20043;-73
2023/09/10 07:36:01;;;;;;;959.22;855.80;;;18.50;83.60;;;;;;5048130;28;20037;-73
2023/09/10 07:38:27;;;;;;;970.88;867.35;;;18.60;83.50;;;;;;5037296;28;20059;-67
2023/09/10 07:40:52;;;;;;;984.28;876.97;;;18.70;83.50;;;;;;5047232;28;20077;-73
2023/09/10 07:43:18;;;;;;;992.33;883.30;;;18.80;83.40;;;;;;5046882;28;20500;-67
2023/09/10 07:45:47;;;;;;;979.22;873.90;;;18.90;83.50;;;;;;5047989;28;20041;-71
2023/09/10 07:48:12;;;;;;;990.75;883.83;;;19.00;83.40;;;;;;5017454;28;20407;-71
2023/09/10 07:50:38;;;;;;;990.72;885.33;;;19.00;83.40;;;;;;5052627;28;20039;-70
2023/09/10 07:53:04;;;;;;;965.40;864.88;;;19.10;83.20;;;;;;5039827;28;20071;-66
2023/09/10 07:55:29;;;;;;;976.67;876.60;;;19.20;83.20;;;;;;5056585;28;20051;-73
2023/09/10 07:57:55;;;;;;;957.85;856.45;;;19.30;83.00;;;;;;5044820;28;20067;-73
2023/09/10 08:00:21;;;;;;;965.03;865.78;;;19.30;83.00;;;;;;5056100;28;20044;-73
2023/09/10 08:02:48;;;;;;;948.65;849.78;;;19.50;83.00;;;;;;5036663;28;20489;-73
2023/09/10 08:05:14;;;;;;;983.00;880.67;;;19.50;83.00;;;;;;5058074;28;20047;-73
2023/09/10 08:07:39;;;;;;;928.13;833.78;;;19.60;83.00;;;;;;5044773;28;20045;-73
2023/09/10 08:10:05;;;;;;;937.53;841.55;;;19.70;82.90;;;;;;5058670;28;20045;-73
2023/09/10 08:12:31;;;;;;;996.10;890.92;;;19.80;82.80;;;;;;5047662;28;20048;-70
2023/09/10 08:14:57;;;;;;;882.55;799.35;;;19.90;82.40;;;;;;5041642;28;20049;-73
2023/09/10 08:17:23;;;;;;;920.78;830.83;;;19.90;82.10;;;;;;5015735;28;20110;-73
2023/09/10 08:19:48;;;;;;;906.55;816.90;;;20.00;82.00;;;;;;5055147;28;20040;-73
2023/09/10 08:22:16;;;;;;;967.08;866.65;;;20.10;81.90;;;;;;5024522;28;20053;-74
2023/09/10 08:24:42;;;;;;;938.83;843.53;;;20.10;81.60;;;;;;5036039;28;20033;-72
2023/09/10 08:27:12;;;;;;;1016.72;908.85;;;20.20;81.40;;;;;;5026203;28;20040;-73
2023/09/10 08:29:38;;;;;;;988.15;881.00;;;20.30;81.30;;;;;;5049139;28;20048;-72
2023/09/10 08:32:04;;;;;;;962.88;864.63;;;20.30;81.10;;;;;;5041493;28;20089;-71
2023/09/10 08:34:30;;;;;;;939.53;847.05;;;20.50;80.70;;;;;;5031433;28;20132;-69
2023/09/10 08:36:56;;;;;;;956.78;856.95;;;20.50;80.30;;;;;;5019200;28;20045;-71
2023/09/10 08:39:22;;;;;;;911.13;822.45;;;20.60;80.00;;;;;;5040697;28;20080;-71
2023/09/10 08:42:16;;;;;;;907.83;817.30;;;20.60;79.70;;;;;;5039655;28;20045;-71
2023/09/10 08:44:44;;;;;;;927.15;834.97;;;20.70;79.40;;;;;;5041856;28;20064;-73
2023/09/10 08:47:14;;;;;;;994.13;889.00;;;20.80;79.50;;;;;;5024661;28;20041;-73
2023/09/10 08:49:43;;;;;;;949.10;856.17;;;20.90;79.60;;;;;;5022957;28;20055;-69
2023/09/10 08:52:09;;;;;;;945.13;851.03;;;21.00;79.50;;;;;;5047516;28;20381;-72
2023/09/10 08:54:35;;;;;;;996.33;892.78;;;21.10;79.50;;;;;;5043537;28;20438;-69
2023/09/10 08:57:03;;;;;;;924.67;833.28;;;21.10;79.30;;;;;;5022481;28;20037;-71
2023/09/10 08:59:30;;;;;;;945.38;852.70;;;21.30;79.20;;;;;;5037231;28;20568;-73
2023/09/10 09:01:56;;;;;;;977.95;878.25;;;21.40;79.00;;;;;;5036192;28;20495;-72
2023/09/10 09:04:23;;;;;;;955.10;859.72;;;21.50;78.90;;;;;;5003036;28;20048;-73
2023/09/10 09:06:55;;;;;;;929.85;838.45;;;21.50;78.30;;;;;;5016772;28;20579;-66
2023/09/10 09:09:24;;;;;;;928.78;838.88;;;21.50;77.80;;;;;;5020475;28;20044;-74
2023/09/10 09:11:51;;;;;;;957.05;858.53;;;21.70;77.90;;;;;;5038706;28;20056;-73
2023/09/10 09:14:18;;;;;;;849.40;769.45;;;21.70;77.70;;;;;;5047349;28;20102;-73
2023/09/10 09:16:47;;;;;;;941.97;844.58;;;21.90;76.70;;;;;;5033829;28;20120;-69
2023/09/10 09:19:14;;;;;;;913.05;825.85;;;21.90;76.10;;;;;;5036331;28;20132;-73
2023/09/10 09:21:41;;;;;;;928.00;836.13;;;22.00;76.30;;;;;;5002323;28;20087;-63
2023/09/10 09:24:10;;;;;;;910.00;824.63;;;22.10;76.00;;;;;;5039643;28;20132;-72
2023/09/10 09:26:36;;;;;;;873.58;792.20;;;22.20;76.10;;;;;;5022431;28;20035;-70
2023/09/10 09:29:02;;;;;;;896.28;810.80;;;22.30;76.10;;;;;;5034731;28;20053;-73
2023/09/10 09:31:28;;;;;;;917.92;828.90;;;22.40;76.00;;;;;;5036616;28;20048;-71
2023/09/10 09:33:55;;;;;;;926.75;838.25;;;22.50;76.00;;;;;;5033207;28;20037;-73
2023/09/10 09:36:30;;;;;;;922.97;834.13;;;22.60;75.70;;;;;;5024894;28;20037;-71
2023/09/10 09:38:56;;;;;;;889.20;806.67;;;22.70;75.50;;;;;;5035049;28;20037;-71
2023/09/10 09:41:22;;;;;;;994.13;894.60;;;22.70;75.50;;;;;;5037490;28;20053;-72
2023/09/10 09:43:48;;;;;;;983.67;886.05;;;22.80;75.10;;;;;;5025495;28;20040;-69
2023/09/10 09:46:13;;;;;;;953.25;861.35;;;22.90;75.00;;;;;;5026422;28;20512;-69
2023/09/10 09:48:39;;;;;;;1024.43;915.45;;;23.00;74.80;;;;;;5034678;28;20503;-71
2023/09/10 09:51:05;;;;;;;981.35;882.22;;;23.00;74.70;;;;;;5031982;28;20056;-70
2023/09/10 09:53:33;;;;;;;960.08;860.67;;;23.10;74.50;;;;;;5030423;28;20112;-73
2023/09/10 09:56:05;;;;;;;991.42;890.25;;;23.20;74.30;;;;;;5019232;28;20052;-73
2023/09/10 09:58:31;;;;;;;1023.80;915.38;;;23.20;74.30;;;;;;5019512;28;20052;-73
2023/09/10 10:00:58;;;;;;;975.67;874.47;;;23.30;74.10;;;;;;5034027;28;20045;-70
2023/09/10 10:03:24;;;;;;;998.15;894.38;;;23.30;73.60;;;;;;5037923;28;20036;-73
2023/09/10 10:05:53;;;;;;;1019.17;912.85;;;23.40;73.60;;;;;;5043162;28;20049;-70
2023/09/10 10:08:25;;;;;;;969.45;871.03;;;23.50;73.70;;;;;;5033840;28;20052;-74
2023/09/10 10:10:51;;;;;;;999.88;894.50;;;23.60;73.00;;;;;;5028189;28;20048;-72
2023/09/10 10:13:22;;;;;;;975.75;880.45;;;23.60;73.00;;;;;;5046097;28;20048;-73
2023/09/10 10:15:48;;;;;;;;;;;23.80;73.00;;;;;;5046675;28;20049;-70
2023/09/10 10:18:15;;;;;;;924.72;832.95;;;23.90;73.30;;;;;;5034339;28;20344;-69
2023/09/10 10:20:46;;;;;;;925.03;837.30;;;23.90;73.50;;;;;;5029570;28;20041;-70
2023/09/10 10:23:13;;;;;;;945.75;854.83;;;24.00;73.50;;;;;;5045828;28;20150;-73
2023/09/10 10:25:41;;;;;;;933.95;846.40;;;24.00;73.50;;;;;;5046377;28;20539;-70
2023/09/10 10:28:09;;;;;;;845.28;772.38;;;24.00;73.00;;;;;;5026711;28;20041;-69
2023/09/10 10:30:42;;;;;;;948.75;857.50;;;24.00;72.90;;;;;;5046124;28;20060;-71
2023/09/10 10:33:11;;;;;;;969.70;875.75;;;24.00;72.70;;;;;;5045843;28;20090;-72
2023/09/10 10:35:43;;;;;;;925.83;838.15;;;24.10;72.70;;;;;;5040051;28;20049;-67
2023/09/10 10:38:13;;;;;;;947.58;857.53;;;24.20;72.60;;;;;;5034349;28;20045;-73
2023/09/10 10:40:42;;;;;;;917.78;829.88;;;24.10;72.60;;;;;;5046325;28;20565;-71
2023/09/10 10:43:13;;;;;;;937.65;847.28;;;24.20;72.50;;;;;;5045839;28;20053;-71
2023/09/10 10:45:39;;;;;;;947.15;857.70;;;24.20;72.30;;;;;;5046745;28;20045;-73
2023/09/10 10:48:12;;;;;;;954.70;860.05;;;24.20;72.50;;;;;;5022833;28;20045;-72
2023/09/10 10:50:39;;;;;;;990.78;890.47;;;24.30;72.00;;;;;;5028448;28;20056;-72
2023/09/10 10:53:33;;;;;;;1019.45;913.28;;;24.40;72.00;;;;;;5043115;28;20439;-73
2023/09/10 10:56:03;;;;;;;940.97;845.78;;;24.40;71.80;;;;;;5038814;28;20055;-74
2023/09/10 10:58:30;;;;;;;983.15;876.53;;;24.40;71.60;;;;;;5006566;28;20725;-67
2023/09/10 11:00:59;;;;;;;1017.75;909.83;;;24.50;71.70;;;;;;5046605;28;20288;-70
2023/09/10 11:03:25;;;;;;;1008.05;902.30;;;24.50;71.50;;;;;;5047481;28;20494;-74
2023/09/10 11:06:04;;;;;;;1005.53;897.95;;;24.60;71.30;;;;;;5048911;28;20083;-74
2023/09/10 11:08:32;;;;;;;959.00;857.65;;;24.60;71.20;;;;;;5043252;28;20053;-74
2023/09/10 11:10:58;;;;;;;958.28;863.42;;;24.60;70.90;;;;;;5031024;28;20095;-72
2023/09/10 11:13:25;;;;;;;995.70;891.67;;;24.60;70.70;;;;;;5048467;28;20126;-74
2023/09/10 11:16:06;;;;;;;982.33;884.13;;;24.70;70.80;;;;;;5048178;28;20079;-74
2023/09/10 11:18:34;;;;;;;1028.75;917.15;;;24.70;71.20;;;;;;5044212;28;20565;-74
2023/09/10 11:21:05;;;;;;;981.58;880.60;;;24.80;70.90;;;;;;5030923;28;20037;-71
2023/09/10 11:23:32;;;;;;;1019.90;910.03;;;24.80;70.90;;;;;;5047668;28;20057;-74
2023/09/10 11:26:12;;;;;;;1024.20;912.53;;;24.90;70.80;;;;;;5048732;28;20048;-74
2023/09/10 11:28:52;;;;;;;1046.72;928.55;;;25.00;69.40;;;;;;5055477;28;20075;-66
2023/09/10 11:31:41;;;;;;;1009.20;902.28;;;25.20;69.20;;;;;;5048037;28;20099;-69
2023/09/10 11:34:16;;;;;;;977.13;874.03;;;25.40;69.20;;;;;;5047220;28;20041;-74
2023/09/10 11:36:50;;;;;;;997.10;891.30;;;25.40;69.50;;;;;;5019456;28;20268;-72
2023/09/10 11:39:19;;;;;;;981.95;881.28;;;25.40;69.30;;;;;;5048807;28;20051;-74
2023/09/10 11:41:50;;;;;;;975.05;879.10;;;25.40;69.30;;;;;;5048624;28;20040;-74
2023/09/10 11:44:16;;;;;;;899.85;811.38;;;25.40;69.30;;;;;;5047663;28;20055;-74
2023/09/10 11:46:42;;;;;;;967.25;871.17;;;25.40;69.30;;;;;;5037415;28;20045;-71
2023/09/10 11:49:08;;;;;;;982.95;883.22;;;25.40;69.30;;;;;;5049258;28;20392;-73
2023/09/10 11:51:47;;;;;;;979.55;882.25;;;25.40;69.40;;;;;;5036200;28;20048;-73
2023/09/10 11:54:17;;;;;;;966.83;870.63;;;25.40;69.30;;;;;;5051956;28;20037;-74
2023/09/10 11:56:47;;;;;;;924.70;833.40;;;25.40;69.70;;;;;;5041163;28;20540;-74
2023/09/10 11:59:14;;;;;;;979.42;875.13;;;25.40;69.60;;;;;;5033290;28;20033;-70
2023/09/10 12:01:41;;;;;;;1009.80;902.40;;;25.40;69.40;;;;;;5052082;28;20093;-72
2023/09/10 12:04:07;;;;;;;990.55;889.55;;;25.50;69.40;;;;;;5051682;28;20055;-74
2023/09/10 12:06:32;;;;;;;1018.30;909.10;;;25.50;69.40;;;;;;5023606;28;20037;-72
2023/09/10 12:08:58;;;;;;;1013.67;909.35;;;25.60;69.60;;;;;;5050722;28;20041;-73
2023/09/10 12:11:26;;;;;;;994.08;891.58;;;25.60;69.70;;;;;;5052098;28;20510;-74